createdAt,value
2023-02-11T00:03:15.242Z,25.7
2023-02-11T00:08:15.220Z,21.8
2023-02-11T00:13:15.223Z,20.5
2023-02-11T00:18:15.231Z,21.0
2023-02-11T00:23:15.227Z,20.3
2023-02-11T00:28:15.299Z,17.4
2023-02-11T00:33:15.232Z,17.3
2023-02-11T00:38:15.237Z,18.7
2023-02-11T00:43:15.230Z,18.6
2023-02-11T00:48:15.232Z,18.1
2023-02-11T00:53:15.229Z,15.9
2023-02-11T00:58:15.246Z,15.6
2023-02-11T01:03:15.238Z,15.5
2023-02-11T01:08:15.250Z,17.0
2023-02-11T01:13:15.245Z,16.8
2023-02-11T01:18:15.257Z,15.4
2023-02-11T01:23:15.261Z,16.8
2023-02-11T01:28:15.273Z,15.8
2023-02-11T01:33:15.267Z,15.5
2023-02-11T01:38:15.269Z,14.3
2023-02-11T01:43:15.266Z,15.5
2023-02-11T01:48:15.271Z,16.2
2023-02-11T01:53:15.268Z,14.5
2023-02-11T01:58:15.281Z,16.3
2023-02-11T02:03:15.323Z,13.9
2023-02-11T02:08:15.282Z,15.2
2023-02-11T02:13:15.282Z,15.5
2023-02-11T02:18:15.280Z,15.7
2023-02-11T02:23:15.287Z,13.2
2023-02-11T02:28:15.320Z,17.9
2023-02-11T02:33:22.395Z,17.3
2023-02-11T02:38:15.322Z,15.2
2023-02-11T02:43:15.302Z,13.4
2023-02-11T02:48:15.296Z,13.4
2023-02-11T02:53:15.309Z,17.1
2023-02-11T02:58:15.302Z,16.5
2023-02-11T03:03:15.309Z,14.1
2023-02-11T03:08:15.315Z,13.3
2023-02-11T03:13:15.312Z,15.6
2023-02-11T03:18:15.311Z,12.9
2023-02-11T03:23:15.311Z,13.4
2023-02-11T03:28:15.370Z,15.4
2023-02-11T03:33:15.334Z,13.7
2023-02-11T03:38:15.322Z,15.9
2023-02-11T03:43:15.336Z,12.8
2023-02-11T03:48:15.333Z,13.1
2023-02-11T03:53:15.335Z,16.4
2023-02-11T03:58:15.334Z,15.9
2023-02-11T04:03:15.461Z,13.7
2023-02-11T04:08:15.365Z,14.0
2023-02-11T04:13:15.329Z,14.5
2023-02-11T04:18:15.348Z,13.7
2023-02-11T04:23:15.341Z,14.5
2023-02-11T04:28:15.365Z,13.7
2023-02-11T04:33:15.349Z,17.7
2023-02-11T04:38:15.391Z,14.3
2023-02-11T04:43:15.359Z,17.4
2023-02-11T04:48:15.405Z,17.4
2023-02-11T04:53:15.367Z,15.0
2023-02-11T04:58:15.360Z,16.6
2023-02-11T05:03:15.364Z,14.8
2023-02-11T05:08:15.369Z,16.2
2023-02-11T05:13:15.369Z,13.4
2023-02-11T05:18:15.383Z,14.1
2023-02-11T05:23:15.376Z,15.6
2023-02-11T05:28:15.425Z,14.6
2023-02-11T05:33:15.384Z,15.5
2023-02-11T05:38:15.401Z,13.1
2023-02-11T05:43:15.383Z,15.1
2023-02-11T05:48:15.388Z,17.1
2023-02-11T05:53:15.395Z,15.9
2023-02-11T05:58:15.395Z,16.6
2023-02-11T06:03:15.455Z,16.9
2023-02-11T06:08:15.421Z,17.4
2023-02-11T06:13:15.416Z,17.4
2023-02-11T06:18:15.406Z,16.5
2023-02-11T06:23:15.416Z,17.4
2023-02-11T06:28:15.499Z,24.2
2023-02-11T06:33:15.419Z,16.8
2023-02-11T06:38:15.415Z,17.8
2023-02-11T06:43:15.421Z,19.0
2023-02-11T06:48:15.434Z,18.6
2023-02-11T06:53:15.429Z,16.9
2023-02-11T06:58:15.436Z,16.1
2023-02-11T07:03:15.521Z,21.0
2023-02-11T07:08:15.452Z,20.9
2023-02-11T07:13:15.441Z,17.7
2023-02-11T07:18:15.445Z,19.0
2023-02-11T07:23:15.442Z,17.8
2023-02-11T07:28:15.447Z,22.4
2023-02-11T07:33:15.445Z,20.9
2023-02-11T07:38:15.444Z,21.5
2023-02-11T07:43:15.453Z,22.5
2023-02-11T07:53:15.455Z,23.2
2023-02-11T07:58:15.452Z,23.2
2023-02-11T08:03:15.469Z,26.6
2023-02-11T08:08:15.492Z,25.6
2023-02-11T08:13:15.460Z,25.3
2023-02-11T08:23:15.465Z,26.1
2023-02-11T08:28:15.563Z,23.5
2023-02-11T08:33:15.472Z,26.5
2023-02-11T08:38:15.479Z,30.9
2023-02-11T08:43:15.545Z,28.5
2023-02-11T08:48:15.483Z,26.5
2023-02-11T08:53:15.487Z,29.0
2023-02-11T08:58:18.099Z,23.7
2023-02-11T09:03:15.542Z,30.3
2023-02-11T09:08:15.504Z,31.0
2023-02-11T09:13:15.505Z,30.0
2023-02-11T09:18:15.507Z,31.6
2023-02-11T09:23:18.243Z,30.6
2023-02-11T09:28:15.626Z,29.7
2023-02-11T09:33:15.514Z,31.1
2023-02-11T09:38:15.510Z,27.8
2023-02-11T09:43:15.522Z,32.5
2023-02-11T09:48:15.516Z,34.6
2023-02-11T09:53:15.528Z,28.8
2023-02-11T09:58:15.528Z,30.6
2023-02-11T10:03:15.542Z,34.1
2023-02-11T10:08:17.050Z,27.9
2023-02-11T10:13:15.541Z,31.6
2023-02-11T10:18:15.548Z,28.8
2023-02-11T10:23:15.576Z,32.4
2023-02-11T10:28:15.700Z,33.1
2023-02-11T10:33:15.556Z,28.0
2023-02-11T10:38:15.577Z,28.9
2023-02-11T10:43:15.560Z,28.4
2023-02-11T10:48:16.523Z,31.8
2023-02-11T10:53:15.577Z,31.0
2023-02-11T10:58:15.565Z,30.0
2023-02-11T11:03:15.590Z,35.2
2023-02-11T11:08:15.581Z,30.3
2023-02-11T11:13:15.629Z,34.1
2023-02-11T11:18:22.047Z,33.0
2023-02-11T11:23:15.594Z,30.1
2023-02-11T11:28:15.609Z,34.0
2023-02-11T11:33:15.612Z,34.1
2023-02-11T11:38:15.593Z,32.2
2023-02-11T11:43:15.584Z,29.2
2023-02-11T11:48:15.592Z,32.5
2023-02-11T11:53:15.497Z,33.6
2023-02-11T11:58:15.641Z,30.5
2023-02-11T12:03:15.707Z,33.2
2023-02-11T12:08:15.601Z,29.7
2023-02-11T12:13:15.512Z,30.8
2023-02-11T12:18:15.557Z,29.0
2023-02-11T12:23:15.542Z,28.8
2023-02-11T12:28:15.582Z,27.8
2023-02-11T12:33:15.525Z,23.8
2023-02-11T12:38:15.532Z,25.8
2023-02-11T12:43:15.523Z,23.8
2023-02-11T12:48:15.547Z,23.4
2023-02-11T12:53:15.532Z,24.8
2023-02-11T12:58:15.546Z,20.5
2023-02-11T13:03:15.550Z,23.6
2023-02-11T13:08:15.552Z,20.7
2023-02-11T13:13:15.559Z,20.9
2023-02-11T13:18:18.101Z,18.0
2023-02-11T13:23:15.560Z,19.6
2023-02-11T13:28:15.589Z,15.8
2023-02-11T13:33:15.563Z,15.8
2023-02-11T13:38:15.574Z,15.5
2023-02-11T13:43:15.579Z,15.8
2023-02-11T13:48:15.573Z,17.1
2023-02-11T13:53:16.156Z,16.1
2023-02-11T13:58:15.590Z,19.2
2023-02-11T14:03:15.584Z,18.2
2023-02-11T14:08:15.581Z,19.6
2023-02-11T14:13:15.587Z,19.1
2023-02-11T14:18:15.587Z,19.4
2023-02-11T14:23:15.604Z,21.3
2023-02-11T14:28:15.641Z,20.3
2023-02-11T14:33:15.597Z,19.2
2023-02-11T14:38:15.603Z,17.7
2023-02-11T14:43:15.608Z,18.3
2023-02-11T14:48:15.616Z,24.3
2023-02-11T14:53:15.611Z,21.9
2023-02-11T14:58:15.646Z,19.8
2023-02-11T15:03:15.610Z,18.2
2023-02-11T15:08:15.619Z,17.9
2023-02-11T15:13:15.624Z,18.7
2023-02-11T15:18:15.623Z,19.4
2023-02-11T15:23:15.641Z,18.9
2023-02-11T15:28:15.694Z,19.7
2023-02-11T15:33:15.639Z,17.5
2023-02-11T15:38:15.634Z,20.8
2023-02-11T15:43:15.641Z,18.9
2023-02-11T15:48:15.649Z,14.5
2023-02-11T15:53:15.709Z,18.6
2023-02-11T15:58:15.650Z,16.3
2023-02-11T16:03:15.652Z,18.3
2023-02-11T16:08:15.649Z,16.2
2023-02-11T16:13:15.650Z,14.3
2023-02-11T16:18:15.654Z,14.8
2023-02-11T16:23:15.658Z,16.4
2023-02-11T16:28:15.725Z,16.1
2023-02-11T16:33:15.661Z,15.3
2023-02-11T16:38:15.663Z,14.6
2023-02-11T16:43:15.683Z,17.7
2023-02-11T16:48:15.677Z,20.7
2023-02-11T16:53:15.672Z,20.0
2023-02-11T16:58:15.682Z,18.0
2023-02-11T17:03:15.673Z,16.9
2023-02-11T17:08:15.678Z,17.0
2023-02-11T17:13:15.677Z,21.8
2023-02-11T17:18:15.676Z,20.1
2023-02-11T17:23:15.709Z,22.7
2023-02-11T17:28:15.710Z,19.4
2023-02-11T17:33:15.692Z,22.4
2023-02-11T17:38:15.682Z,25.4
2023-02-11T17:43:15.697Z,25.7
2023-02-11T17:48:15.698Z,23.1
2023-02-11T17:53:15.697Z,28.4
2023-02-11T17:58:15.712Z,25.6
2023-02-11T18:03:15.715Z,29.4
2023-02-11T18:08:15.803Z,28.2
2023-02-11T18:13:15.806Z,24.7
2023-02-11T18:18:15.810Z,27.9
2023-02-11T18:23:15.810Z,26.2
2023-02-11T18:28:15.839Z,29.1
2023-02-11T18:33:15.818Z,27.6
2023-02-11T18:38:15.826Z,25.1
2023-02-11T18:43:15.823Z,28.8
2023-02-11T18:48:15.836Z,27.7
2023-02-11T18:53:15.838Z,30.3
2023-02-11T18:58:15.845Z,28.9
2023-02-11T19:03:15.903Z,26.9
2023-02-11T19:08:15.835Z,29.3
2023-02-11T19:13:15.848Z,29.7
2023-02-11T19:18:15.857Z,30.5
2023-02-11T19:23:15.863Z,27.6
2023-02-11T19:28:15.952Z,30.3
2023-02-11T19:33:15.846Z,28.5
2023-02-11T19:38:15.855Z,29.4
2023-02-11T19:43:15.860Z,28.0
2023-02-11T19:48:15.856Z,27.8
2023-02-11T19:53:15.869Z,28.0
2023-02-11T19:58:15.920Z,31.4
2023-02-11T20:03:15.869Z,30.1
2023-02-11T20:08:15.883Z,31.6
2023-02-11T20:13:15.875Z,32.5
2023-02-11T20:18:15.886Z,28.9
2023-02-11T20:23:15.873Z,29.4
2023-02-11T20:28:16.001Z,26.2
2023-02-11T20:33:15.875Z,28.3
2023-02-11T20:38:15.883Z,27.6
2023-02-11T20:43:15.887Z,26.5
2023-02-11T20:48:15.889Z,26.4
2023-02-11T20:53:15.905Z,27.6
2023-02-11T20:58:15.895Z,25.7
2023-02-11T21:03:15.917Z,29.1
2023-02-11T21:08:15.911Z,28.8
2023-02-11T21:13:15.938Z,31.2
2023-02-11T21:18:15.909Z,30.5
2023-02-11T21:23:15.905Z,28.2
2023-02-11T21:28:15.989Z,28.5
2023-02-11T21:33:15.916Z,30.2
2023-02-11T21:38:15.923Z,28.7
2023-02-11T21:43:15.926Z,26.8
2023-02-11T21:48:15.946Z,28.7
2023-02-11T21:53:15.927Z,26.7
2023-02-11T21:58:15.933Z,30.0
2023-02-11T22:03:15.935Z,25.5
2023-02-11T22:08:17.998Z,28.5
2023-02-11T22:13:15.945Z,27.1
2023-02-11T22:18:15.944Z,24.6
2023-02-11T22:23:15.949Z,27.1
2023-02-11T22:28:16.146Z,26.6
2023-02-11T22:33:15.945Z,26.8
2023-02-11T22:38:15.949Z,28.5
2023-02-11T22:43:15.974Z,26.7
2023-02-11T22:48:16.203Z,28.8
2023-02-11T22:53:15.955Z,28.3
2023-02-11T22:58:15.956Z,25.2
2023-02-11T23:03:15.956Z,28.2
2023-02-11T23:08:15.951Z,24.3
2023-02-11T23:13:15.975Z,25.6
2023-02-11T23:18:15.962Z,25.0
2023-02-11T23:23:15.970Z,23.7
2023-02-11T23:28:16.047Z,22.6
2023-02-11T23:33:15.966Z,22.6
2023-02-11T23:38:15.980Z,20.5
2023-02-11T23:43:15.986Z,23.1
2023-02-11T23:48:15.994Z,22.8
2023-02-11T23:53:15.986Z,20.9
2023-02-11T23:58:16.000Z,19.9
